Time;durP1;ratioP1;P1;durP2;ratioP2;P2;SDS_P1;SDS_P2;PMS_P1;PMS_P2;Temp;Humidity;BMP_temperature;BMP_pressure;BME280_temperature;BME280_humidity;BME280_pressure;Samples;Min_cycle;Max_cycle;Signal;HPM_P1;HPM_P2
2022/03/05 00:01:19;;;;;;;;;;;;;;;-6.12;64.55;101881.69;4992651;28;19977;-77
2022/03/05 00:03:45;;;;;;;;;;;;;;;-6.12;64.26;101889.69;4991835;28;20385;-77
2022/03/05 00:06:11;;;;;;;;;;;;;;;-6.14;64.04;101889.00;4991257;28;19982;-77
2022/03/05 00:08:36;;;;;;;;;;;;;;;-6.14;64.76;101892.50;4992956;28;19953;-77
2022/03/05 00:11:02;;;;;;;;;;;;;;;-6.15;64.44;101895.31;4991171;28;19937;-77
2022/03/05 00:13:27;;;;;;;;;;;;;;;-6.21;64.44;101895.91;4992889;28;19933;-77
2022/03/05 00:15:53;;;;;;;;;;;;;;;-6.26;64.80;101898.97;4992261;28;19925;-77
2022/03/05 00:18:18;;;;;;;;;;;;;;;-6.27;64.66;101893.78;5001993;28;19926;-77
2022/03/05 00:20:45;;;;;;;;;;;;;;;-6.29;65.14;101895.75;4995659;28;20297;-77
2022/03/05 00:23:11;;;;;;;;;;;;;;;-6.29;64.89;101893.91;4992421;28;20428;-76
2022/03/05 00:25:37;;;;;;;;;;;;;;;-6.30;64.62;101896.72;4987248;28;19932;-77
2022/03/05 00:28:02;;;;;;;;;;;;;;;-6.29;64.95;101901.94;4992781;28;20355;-77
2022/03/05 00:30:28;;;;;;;;;;;;;;;-6.31;65.48;101906.56;4992569;28;20392;-77
2022/03/05 00:32:53;;;;;;;;;;;;;;;-6.31;65.04;101901.22;4992223;28;19960;-75
2022/03/05 00:35:19;;;;;;;;;;;;;;;-6.33;65.11;101897.88;4989474;28;20025;-78
2022/03/05 00:37:44;;;;;;;;;;;;;;;-6.34;65.47;101900.69;4989227;28;19948;-77
2022/03/05 00:40:10;;;;;;;;;;;;;;;-6.34;65.09;101903.34;4992103;28;19926;-77
2022/03/05 00:42:36;;;;;;;;;;;;;;;-6.33;65.64;101907.69;4995580;28;19929;-76
2022/03/05 00:45:01;;;;;;;;;;;;;;;-6.35;65.92;101894.50;4991970;28;19926;-76
2022/03/05 00:47:27;;;;;;;;;;;;;;;-6.35;65.46;101904.31;4991486;28;19929;-76
2022/03/05 00:49:53;;;;;;;;;;;;;;;-6.34;66.05;101901.50;4990653;28;19932;-77
2022/03/05 00:52:19;;;;;;;;;;;;;;;-6.35;65.57;101893.66;4990923;28;20037;-75
2022/03/05 00:54:44;;;;;;;;;;;;;;;-6.32;65.68;101896.03;4984791;28;19997;-75
2022/03/05 00:57:09;;;;;;;;;;;;;;;-6.28;66.01;101897.44;4991177;28;20443;-76
2022/03/05 00:59:35;;;;;;;;;;;;;;;-6.28;65.81;101902.78;4991881;28;19925;-76
2022/03/05 01:02:00;;;;;;;;;;;;;;;-6.29;65.45;101896.59;4990428;28;19925;-76
2022/03/05 01:04:26;;;;;;;;;;;;;;;-6.30;65.06;101900.25;4991767;28;19980;-76
2022/03/05 01:06:51;;;;;;;;;;;;;;;-6.35;65.41;101899.84;4991761;28;19981;-76
2022/03/05 01:09:17;;;;;;;;;;;;;;;-6.40;65.88;101897.59;4992013;28;19925;-76
2022/03/05 01:11:42;;;;;;;;;;;;;;;-6.42;65.72;101898.69;4990608;28;20011;-76
2022/03/05 01:14:08;;;;;;;;;;;;;;;-6.43;65.25;101897.84;4991317;28;19992;-76
2022/03/05 01:16:34;;;;;;;;;;;;;;;-6.42;65.81;101907.56;4990563;28;20335;-76
2022/03/05 01:19:00;;;;;;;;;;;;;;;-6.47;65.44;101900.94;4991579;28;20423;-76
2022/03/05 01:21:25;;;;;;;;;;;;;;;-6.53;65.59;101901.50;4990309;28;20020;-76
2022/03/05 01:23:51;;;;;;;;;;;;;;;-6.56;65.73;101901.78;4990431;28;19969;-78
2022/03/05 01:26:16;;;;;;;;;;;;;;;-6.59;66.57;101907.41;4991949;28;20016;-77
2022/03/05 01:28:42;;;;;;;;;;;;;;;-6.60;65.85;101898.53;4990215;28;19932;-76
2022/03/05 01:31:07;;;;;;;;;;;;;;;-6.61;66.37;101904.84;4991720;28;19930;-76
2022/03/05 01:33:33;;;;;;;;;;;;;;;-6.62;66.30;101900.50;4991722;28;19926;-77
2022/03/05 01:35:58;;;;;;;;;;;;;;;-6.65;66.56;101911.47;4991635;28;19925;-77
2022/03/05 01:38:24;;;;;;;;;;;;;;;-6.65;66.36;101903.44;4991703;28;19925;-77
2022/03/05 01:40:51;;;;;;;;;;;;;;;-6.58;66.68;101901.09;4989841;28;19980;-77
2022/03/05 01:43:16;;;;;;;;;;;;;;;-6.54;66.54;101900.66;4991360;28;20324;-77
2022/03/05 01:45:42;;;;;;;;;;;;;;;-6.51;66.80;101902.22;4989968;28;19965;-77
2022/03/05 01:48:08;;;;;;;;;;;;;;;-6.50;67.14;101903.91;4991401;28;20425;-77
2022/03/05 01:50:33;;;;;;;;;;;;;;;-6.46;67.62;101898.13;5002681;28;19960;-77
2022/03/05 01:52:59;;;;;;;;;;;;;;;-6.41;67.00;101895.91;4998505;28;19954;-77
2022/03/05 01:55:25;;;;;;;;;;;;;;;-6.38;67.58;101892.94;4991587;28;19925;-76
2022/03/05 01:57:50;;;;;;;;;;;;;;;-6.33;67.19;101897.88;4988810;28;19925;-76
2022/03/05 02:00:16;;;;;;;;;;;;;;;-6.32;66.94;101896.03;4991168;28;19930;-77
2022/03/05 02:02:41;;;;;;;;;;;;;;;-6.30;67.16;101886.06;4989481;28;19925;-77
2022/03/05 02:05:09;;;;;;;;;;;;;;;-6.30;67.82;101889.56;4990179;28;19949;-77
2022/03/05 02:07:34;;;;;;;;;;;;;;;-6.30;66.74;101891.38;4990662;28;19926;-77
2022/03/05 02:10:00;;;;;;;;;;;;;;;-6.23;67.83;101897.88;4989334;28;19926;-77
2022/03/05 02:12:32;;;;;;;;;;;;;;;-6.23;67.68;101893.38;4991310;28;20021;-77
2022/03/05 02:14:58;;;;;;;;;;;;;;;-6.17;67.32;101890.13;4988518;28;19925;-78
2022/03/05 02:17:24;;;;;;;;;;;;;;;-6.12;67.61;101898.56;5006606;28;20048;-76
2022/03/05 02:19:49;;;;;;;;;;;;;;;-6.12;67.90;101901.22;4989276;28;20024;-77
2022/03/05 02:22:15;;;;;;;;;;;;;;;-6.13;67.95;101904.03;4990743;28;20017;-77
2022/03/05 02:24:40;;;;;;;;;;;;;;;-6.10;67.99;101906.41;4991673;28;20007;-77
2022/03/05 02:27:06;;;;;;;;;;;;;;;-6.08;67.53;101907.13;4991518;28;19925;-76
2022/03/05 02:29:32;;;;;;;;;;;;;;;-6.02;68.20;101905.72;4990684;28;20437;-76
2022/03/05 02:31:58;;;;;;;;;;;;;;;-6.02;68.31;101911.91;4990954;28;20419;-76
2022/03/05 02:34:24;;;;;;;;;;;;;;;-6.05;67.48;101917.56;4991259;28;19933;-76
2022/03/05 02:36:50;;;;;;;;;;;;;;;-6.07;67.67;101908.84;4984712;28;20411;-76
2022/03/05 02:39:16;;;;;;;;;;;;;;;-6.12;67.74;101917.25;4988496;28;19925;-76
2022/03/05 02:41:41;;;;;;;;;;;;;;;-6.12;67.65;101916.41;4990724;28;20020;-76
2022/03/05 02:44:07;;;;;;;;;;;;;;;-6.13;68.62;101918.25;4990321;28;20447;-76
2022/03/05 02:46:34;;;;;;;;;;;;;;;-6.14;68.51;101924.56;4994669;28;19932;-75
2022/03/05 02:49:00;;;;;;;;;;;;;;;-6.17;68.12;101922.19;4994633;28;19925;-75
2022/03/05 02:51:25;;;;;;;;;;;;;;;-6.17;68.22;101926.69;4993542;28;19950;-77
2022/03/05 02:53:50;;;;;;;;;;;;;;;-6.16;68.64;101931.03;4993457;28;19933;-76
2022/03/05 02:56:16;;;;;;;;;;;;;;;-6.16;68.91;101923.03;4993452;28;19948;-77
2022/03/05 02:58:41;;;;;;;;;;;;;;;-6.17;68.32;101924.00;4992647;28;19951;-76
2022/03/05 03:01:08;;;;;;;;;;;;;;;-6.21;68.75;101923.47;4994218;28;19979;-76
2022/03/05 03:03:34;;;;;;;;;;;;;;;-6.26;68.69;101927.50;4994179;28;20406;-76
2022/03/05 03:06:00;;;;;;;;;;;;;;;-6.23;68.72;101929.94;4993452;28;19930;-75
2022/03/05 03:08:26;;;;;;;;;;;;;;;-6.25;68.97;101937.22;4992818;28;20024;-76
2022/03/05 03:10:51;;;;;;;;;;;;;;;-6.24;68.66;101933.59;4992709;28;20431;-76
2022/03/05 03:13:16;;;;;;;;;;;;;;;-6.23;68.80;101925.44;4993333;28;19974;-76
2022/03/05 03:15:42;;;;;;;;;;;;;;;-6.26;68.95;101930.19;4994126;28;20024;-76
2022/03/05 03:18:07;;;;;;;;;;;;;;;-6.26;69.69;101930.19;4993405;28;19932;-76
2022/03/05 03:20:33;;;;;;;;;;;;;;;-6.28;69.34;101932.16;4993742;28;20376;-76
2022/03/05 03:23:00;;;;;;;;;;;;;;;-6.30;69.81;101921.63;4993925;28;19932;-76
2022/03/05 03:25:25;;;;;;;;;;;;;;;-6.28;69.91;101921.47;4994291;28;19925;-76
2022/03/05 03:27:52;;;;;;;;;;;;;;;-6.28;70.27;101926.81;4992587;28;20285;-76
2022/03/05 03:30:17;;;;;;;;;;;;;;;-6.32;69.64;101922.75;4993824;28;19972;-76
2022/03/05 03:32:44;;;;;;;;;;;;;;;-6.34;70.02;101927.38;4976876;28;19929;-76
2022/03/05 03:35:11;;;;;;;;;;;;;;;-6.34;70.35;101924.72;4993694;28;19925;-76
2022/03/05 03:37:37;;;;;;;;;;;;;;;-6.34;69.90;101917.53;4993451;28;19926;-76
2022/03/05 03:40:03;;;;;;;;;;;;;;;-6.34;69.95;101922.88;4993910;28;19933;-78
2022/03/05 03:42:28;;;;;;;;;;;;;;;-6.35;70.34;101917.69;4993751;28;20438;-77
2022/03/05 03:44:54;;;;;;;;;;;;;;;-6.39;69.97;101923.31;4993635;28;19972;-78
2022/03/05 03:47:20;;;;;;;;;;;;;;;-6.40;70.58;101921.63;4992844;28;19926;-78
2022/03/05 03:49:46;;;;;;;;;;;;;;;-6.42;70.50;101928.06;4993411;28;20536;-78
2022/03/05 03:52:13;;;;;;;;;;;;;;;-6.43;70.83;101934.38;4992127;28;19925;-77
2022/03/05 03:54:39;;;;;;;;;;;;;;;-6.44;70.39;101930.88;4993348;28;19930;-77
2022/03/05 03:57:09;;;;;;;;;;;;;;;-6.44;70.73;101932.69;4990292;28;20320;-77
2022/03/05 03:59:34;;;;;;;;;;;;;;;-6.48;71.08;101937.47;4995105;28;19925;-78
2022/03/05 04:02:02;;;;;;;;;;;;;;;-6.50;71.38;101928.78;5003322;28;19932;-78
2022/03/05 04:04:28;;;;;;;;;;;;;;;-6.50;71.72;101928.78;5012001;28;19925;-77
2022/03/05 04:09:37;;;;;;;;;;;;;;;-6.48;71.66;101925.94;4990457;28;20068;-76
2022/03/05 04:12:03;;;;;;;;;;;;;;;-6.50;71.24;101927.94;4992778;28;20025;-76
2022/03/05 04:14:29;;;;;;;;;;;;;;;-6.45;71.88;101929.19;4992752;28;20029;-77
2022/03/05 04:16:55;;;;;;;;;;;;;;;-6.45;72.20;101923.84;4990247;28;19933;-78
2022/03/05 04:19:21;;;;;;;;;;;;;;;-6.43;71.91;101929.03;4991587;28;19925;-77
2022/03/05 04:21:46;;;;;;;;;;;;;;;-6.37;72.03;101925.84;4992118;28;20408;-78
2022/03/05 04:24:12;;;;;;;;;;;;;;;-6.33;72.42;101929.06;4992709;28;20439;-77
2022/03/05 04:26:38;;;;;;;;;;;;;;;-6.38;72.08;101925.00;4992611;28;20032;-78
2022/03/05 04:29:04;;;;;;;;;;;;;;;-6.34;72.24;101927.38;4990499;28;19926;-76
2022/03/05 04:31:29;;;;;;;;;;;;;;;-6.34;72.08;101932.72;4988733;28;20051;-77
2022/03/05 04:33:55;;;;;;;;;;;;;;;-6.34;72.05;101930.06;4991126;28;20024;-78
2022/03/05 04:36:21;;;;;;;;;;;;;;;-6.33;72.24;101934.41;4991321;28;20389;-77
2022/03/05 04:38:47;;;;;;;;;;;;;;;-6.32;72.07;101936.09;4992847;28;19925;-78
2022/03/05 04:41:12;;;;;;;;;;;;;;;-6.34;72.21;101938.06;5002222;28;19926;-75
2022/03/05 04:43:38;;;;;;;;;;;;;;;-6.34;72.33;101943.41;4985692;28;19930;-76
2022/03/05 04:46:03;;;;;;;;;;;;;;;-6.36;72.14;101940.03;4992203;28;19921;-75
2022/03/05 04:48:29;;;;;;;;;;;;;;;-6.36;72.72;101934.69;4991094;28;20036;-78
2022/03/05 04:50:54;;;;;;;;;;;;;;;-6.41;72.02;101943.13;4992390;28;19926;-76
2022/03/05 04:53:21;;;;;;;;;;;;;;;-6.44;73.15;101933.53;4992628;28;19944;-76
2022/03/05 04:55:49;;;;;;;;;;;;;;;-6.44;72.71;101938.03;4992303;28;19926;-77
2022/03/05 04:58:15;;;;;;;;;;;;;;;-6.43;72.67;101945.06;4992572;28;20356;-76
2022/03/05 05:00:40;;;;;;;;;;;;;;;-6.35;73.27;101942.56;5007660;28;19925;-76
2022/03/05 05:03:06;;;;;;;;;;;;;;;-6.14;72.51;101939.75;4992283;28;19932;-77
2022/03/05 05:05:31;;;;;;;;;;;;;;;-5.84;72.48;101946.75;5007412;28;19922;-76
2022/03/05 05:07:57;;;;;;;;;;;;;;;-5.51;71.89;101948.94;4991757;28;20406;-76
2022/03/05 05:10:22;;;;;;;;;;;;;;;-5.24;71.08;101949.97;4992380;28;19922;-77
2022/03/05 05:12:47;;;;;;;;;;;;;;;-5.02;70.73;101946.97;4992398;28;19972;-76
2022/03/05 05:15:13;;;;;;;;;;;;;;;-4.69;69.75;101955.38;4992170;28;19925;-77
2022/03/05 05:17:39;;;;;;;;;;;;;;;-4.37;69.00;101949.53;5007452;28;19933;-76
2022/03/05 05:20:04;;;;;;;;;;;;;;;-4.05;67.79;101944.50;5003532;28;20308;-76
2022/03/05 05:22:31;;;;;;;;;;;;;;;-3.77;67.16;101947.09;4990915;28;19925;-76
2022/03/05 05:24:56;;;;;;;;;;;;;;;-3.40;66.25;101945.03;4990678;28;20293;-77
2022/03/05 05:27:22;;;;;;;;;;;;;;;-2.99;64.82;101941.72;4972450;28;19980;-77
2022/03/05 05:29:47;;;;;;;;;;;;;;;-2.76;64.61;101942.84;4972453;28;20419;-77
2022/03/05 05:32:13;;;;;;;;;;;;;;;-2.50;63.92;101942.75;4987278;28;19933;-77
2022/03/05 05:34:39;;;;;;;;;;;;;;;-2.17;62.73;101941.81;4987921;28;20419;-77
2022/03/05 05:37:04;;;;;;;;;;;;;;;-1.90;61.62;101945.22;4991798;28;19926;-76
2022/03/05 05:39:30;;;;;;;;;;;;;;;-1.66;60.48;101952.44;4991818;28;19981;-76
2022/03/05 05:41:55;;;;;;;;;;;;;;;-1.65;59.65;101949.59;4991473;28;19925;-76
2022/03/05 05:44:21;;;;;;;;;;;;;;;-1.60;59.76;101957.97;4991774;28;19932;-76
2022/03/05 05:46:46;;;;;;;;;;;;;;;-1.48;59.29;101954.97;4991776;28;19926;-77
2022/03/05 05:49:11;;;;;;;;;;;;;;;-1.28;58.90;101950.88;4990366;28;20052;-77
2022/03/05 05:51:38;;;;;;;;;;;;;;;-0.95;58.15;101949.78;4991671;28;20032;-78
2022/03/05 05:54:04;;;;;;;;;;;;;;;-0.78;57.25;101944.34;4991157;28;20372;-76
2022/03/05 05:56:29;;;;;;;;;;;;;;;-0.70;56.97;101955.06;4990458;28;19926;-76
2022/03/05 05:58:55;;;;;;;;;;;;;;;-0.40;56.40;101956.13;4991720;28;19925;-77
2022/03/05 06:01:21;;;;;;;;;;;;;;;-0.06;56.08;101953.03;5002054;28;19933;-76
2022/03/05 06:03:48;;;;;;;;;;;;;;;0.30;55.19;101951.41;4991763;28;19926;-76
2022/03/05 06:06:14;;;;;;;;;;;;;;;0.68;53.75;101947.88;4991774;28;19969;-77
2022/03/05 06:08:39;;;;;;;;;;;;;;;1.05;52.54;101955.09;4992306;28;20443;-77
2022/03/05 06:11:05;;;;;;;;;;;;;;;1.37;52.20;101957.38;4991770;28;19933;-78
2022/03/05 06:13:30;;;;;;;;;;;;;;;1.70;51.19;101956.97;4992398;28;20323;-77
2022/03/05 06:15:56;;;;;;;;;;;;;;;1.96;50.73;101957.25;4991592;28;19926;-78
2022/03/05 06:18:21;;;;;;;;;;;;;;;2.18;49.62;101960.81;4991567;28;19972;-78
2022/03/05 06:20:47;;;;;;;;;;;;;;;2.17;49.84;101966.44;4995284;28;19969;-78
2022/03/05 06:23:13;;;;;;;;;;;;;;;2.30;49.63;101959.28;5010282;28;19932;-77
2022/03/05 06:25:38;;;;;;;;;;;;;;;2.55;48.39;101956.13;4994432;28;19937;-77
2022/03/05 06:28:04;;;;;;;;;;;;;;;2.86;47.68;101961.19;4995218;28;20008;-77
2022/03/05 06:30:30;;;;;;;;;;;;;;;2.98;47.27;101957.72;4992622;28;20051;-78
2022/03/05 06:32:55;;;;;;;;;;;;;;;3.07;47.11;101965.69;4993993;28;19996;-75
2022/03/05 06:35:20;;;;;;;;;;;;;;;3.24;46.72;101961.63;4978469;28;19926;-76
2022/03/05 06:37:46;;;;;;;;;;;;;;;3.46;46.43;101956.91;5003339;28;19926;-76
2022/03/05 06:40:12;;;;;;;;;;;;;;;3.77;45.63;101961.84;4994626;28;19932;-76
2022/03/05 06:42:38;;;;;;;;;;;;;;;3.55;45.57;101969.28;4995064;28;19926;-76
2022/03/05 06:45:03;;;;;;;;;;;;;;;3.58;45.70;101958.84;4993820;28;20397;-77
2022/03/05 06:47:30;;;;;;;;;;;;;;;3.71;45.98;101968.94;4993907;28;19984;-75
2022/03/05 06:49:56;;;;;;;;;;;;;;;3.93;45.28;101970.47;4990144;28;19926;-78
2022/03/05 06:52:21;;;;;;;;;;;;;;;4.18;44.67;101969.91;4993145;28;19933;-78
2022/03/05 06:54:47;;;;;;;;;;;;;;;4.18;45.15;101969.91;4994976;28;20024;-78
2022/03/05 06:57:12;;;;;;;;;;;;;;;4.36;44.43;101967.44;4993368;28;19933;-78
2022/03/05 06:59:37;;;;;;;;;;;;;;;4.74;43.79;101969.53;4981762;28;19930;-78
2022/03/05 07:02:03;;;;;;;;;;;;;;;4.75;43.73;101976.63;4974973;28;19972;-78
2022/03/05 07:04:28;;;;;;;;;;;;;;;5.02;43.07;101967.38;4975113;28;19977;-78
2022/03/05 07:06:54;;;;;;;;;;;;;;;5.42;42.91;101978.19;4975027;28;20032;-78
2022/03/05 07:09:19;;;;;;;;;;;;;;;5.68;42.39;101978.06;4981211;28;19969;-78
2022/03/05 07:11:45;;;;;;;;;;;;;;;5.72;42.32;101976.59;5009676;28;19926;-78
2022/03/05 07:14:10;;;;;;;;;;;;;;;5.79;42.11;101975.75;4984224;28;19941;-78
2022/03/05 07:16:36;;;;;;;;;;;;;;;5.99;41.67;101976.50;4974173;28;19926;-77
2022/03/05 07:19:02;;;;;;;;;;;;;;;6.09;41.36;101974.16;4957502;28;19926;-78
2022/03/05 07:21:27;;;;;;;;;;;;;;;6.21;40.96;101982.44;4974876;28;19926;-78
2022/03/05 07:23:53;;;;;;;;;;;;;;;6.41;40.41;101985.88;4974967;28;20317;-78
2022/03/05 07:26:18;;;;;;;;;;;;;;;6.69;40.46;101980.00;4982676;28;20028;-78
2022/03/05 07:28:47;;;;;;;;;;;;;;;6.84;39.29;101976.94;4994076;28;19976;-78
2022/03/05 07:31:12;;;;;;;;;;;;;;;6.89;38.91;101972.47;5009026;28;19929;-78
2022/03/05 07:33:38;;;;;;;;;;;;;;;6.98;38.70;101966.75;5009534;28;19933;-78
2022/03/05 07:36:04;;;;;;;;;;;;;;;7.14;39.30;101968.91;4994131;28;19979;-78
2022/03/05 07:38:30;;;;;;;;;;;;;;;7.28;38.88;101978.59;4993842;28;20415;-78
2022/03/05 07:40:55;;;;;;;;;;;;;;;7.49;38.13;101978.16;4993891;28;19926;-78
2022/03/05 07:43:21;;;;;;;;;;;;;;;7.45;38.71;101989.75;4993755;28;19926;-78
2022/03/05 07:45:46;;;;;;;;;;;;;;;7.54;38.52;101978.31;4994273;28;19925;-78
2022/03/05 07:48:12;;;;;;;;;;;;;;;7.77;37.75;101984.97;4993864;28;19925;-77
2022/03/05 07:50:37;;;;;;;;;;;;;;;7.97;37.23;101985.53;4993926;28;20447;-78
2022/03/05 07:53:03;;;;;;;;;;;;;;;8.19;37.29;101976.84;4993748;28;20017;-79
2022/03/05 07:55:28;;;;;;;;;;;;;;;8.38;36.50;101979.31;4992453;28;20406;-79
2022/03/05 07:57:54;;;;;;;;;;;;;;;8.62;36.88;101979.34;5008679;28;20389;-79
2022/03/05 08:00:19;;;;;;;;;;;;;;;8.79;35.69;101980.31;4993603;28;20036;-79
2022/03/05 08:02:45;;;;;;;;;;;;;;;8.66;35.48;101975.88;4993783;28;20024;-79
2022/03/05 08:05:10;;;;;;;;;;;;;;;8.72;36.05;101974.13;4993349;28;20308;-79
2022/03/05 08:07:36;;;;;;;;;;;;;;;8.74;36.11;101975.56;4993258;28;20393;-79
2022/03/05 08:10:01;;;;;;;;;;;;;;;8.95;35.25;101979.63;4987594;28;19934;-79
2022/03/05 08:12:27;;;;;;;;;;;;;;;8.65;36.06;101967.91;4993223;28;19926;-78
2022/03/05 08:14:52;;;;;;;;;;;;;;;7.98;36.98;101969.97;4992746;28;19961;-78
2022/03/05 08:17:18;;;;;;;;;;;;;;;7.88;37.33;101967.78;4992934;28;19930;-79
2022/03/05 08:19:43;;;;;;;;;;;;;;;8.23;36.29;101965.19;4993103;28;19925;-78
2022/03/05 08:22:09;;;;;;;;;;;;;;;8.45;36.87;101960.03;4987142;28;19952;-78
2022/03/05 08:24:34;;;;;;;;;;;;;;;9.18;35.41;101956.88;4973619;28;20371;-78
2022/03/05 08:27:00;;;;;;;;;;;;;;;9.78;34.48;101951.03;4977076;28;20543;-78
2022/03/05 08:29:25;;;;;;;;;;;;;;;10.30;33.08;101950.94;4977236;28;19932;-78
2022/03/05 08:31:51;;;;;;;;;;;;;;;10.39;33.19;101945.88;4973540;28;20009;-78
2022/03/05 08:34:16;;;;;;;;;;;;;;;10.55;32.94;101945.03;4973418;28;19933;-78
2022/03/05 08:36:42;;;;;;;;;;;;;;;10.60;32.67;101942.41;4972485;28;19926;-77
2022/03/05 08:39:07;;;;;;;;;;;;;;;10.71;31.53;101948.88;4973440;28;19961;-77
2022/03/05 08:41:33;;;;;;;;;;;;;;;10.88;32.23;101955.19;4972563;28;19977;-77
2022/03/05 08:43:58;;;;;;;;;;;;;;;10.98;30.86;101944.38;4973124;28;20396;-78
2022/03/05 08:46:24;;;;;;;;;;;;;;;10.81;31.03;101938.06;4973465;28;20467;-79
2022/03/05 08:48:49;;;;;;;;;;;;;;;10.31;32.24;101944.38;4973812;28;19976;-78
2022/03/05 08:51:14;;;;;;;;;;;;;;;9.97;32.92;101946.19;4973840;28;19973;-78
2022/03/05 08:53:40;;;;;;;;;;;;;;;9.88;32.79;101942.97;4972583;28;20025;-78
2022/03/05 08:56:05;;;;;;;;;;;;;;;9.60;33.58;101940.25;4973389;28;20036;-78
2022/03/05 08:58:31;;;;;;;;;;;;;;;9.29;33.91;101941.50;4973311;28;20428;-77
2022/03/05 09:00:59;;;;;;;;;;;;;;;8.91;34.06;101942.84;4974378;28;19984;-77
2022/03/05 09:03:25;;;;;;;;;;;;;;;7.73;35.36;101942.78;4975797;28;20455;-78
2022/03/05 09:05:50;;;;;;;;;;;;;;;6.54;37.33;101944.03;4979994;28;19926;-77
2022/03/05 09:08:16;;;;;;;;;;;;;;;5.54;39.06;101949.22;4992108;28;19933;-77
2022/03/05 09:10:47;;;;;;;;;;;;;;;4.79;40.26;101950.69;4973573;28;19926;-77
2022/03/05 09:13:12;;;;;;;;;;;;;;;4.19;41.73;101952.56;4973048;28;19926;-77
2022/03/05 09:15:38;;;;;;;;;;;;;;;3.75;42.72;101947.66;4987925;28;19984;-77
2022/03/05 09:18:04;;;;;;;;;;;;;;;3.17;43.44;101958.03;4972960;28;20320;-79
2022/03/05 09:20:30;;;;;;;;;;;;;;;2.79;44.36;101960.31;4987388;28;19937;-78
2022/03/05 09:22:56;;;;;;;;;;;;;;;2.48;45.03;101963.38;4971431;28;20527;-77
2022/03/05 09:25:21;;;;;;;;;;;;;;;2.27;46.22;101964.25;4972754;28;19926;-79
2022/03/05 09:27:47;;;;;;;;;;;;;;;2.08;46.21;101961.16;4987842;28;20032;-78
2022/03/05 09:30:12;;;;;;;;;;;;;;;1.81;47.88;101962.72;4981494;28;20017;-77
2022/03/05 09:32:38;;;;;;;;;;;;;;;1.51;48.36;101959.22;4991760;28;19925;-78
2022/03/05 09:35:03;;;;;;;;;;;;;;;1.42;49.11;101954.13;4991332;28;19925;-77
2022/03/05 09:37:30;;;;;;;;;;;;;;;1.34;49.93;101955.06;4990798;28;20412;-77
2022/03/05 09:39:58;;;;;;;;;;;;;;;1.28;48.97;101963.94;4991606;28;19932;-78
2022/03/05 09:42:24;;;;;;;;;;;;;;;1.17;49.92;101965.22;4990539;28;19953;-78
2022/03/05 09:44:50;;;;;;;;;;;;;;;1.13;50.29;101955.00;4990397;28;19930;-77
2022/03/05 09:47:15;;;;;;;;;;;;;;;0.99;50.21;101953.13;4986758;28;20407;-78
2022/03/05 09:49:41;;;;;;;;;;;;;;;0.95;51.00;101949.13;4990635;28;20020;-77
2022/03/05 09:52:06;;;;;;;;;;;;;;;0.85;51.16;101950.22;5007085;28;19926;-77
2022/03/05 09:54:32;;;;;;;;;;;;;;;0.65;50.78;101943.66;4995285;28;19980;-78
2022/03/05 09:56:57;;;;;;;;;;;;;;;0.53;51.20;101942.47;4995673;28;19973;-78
2022/03/05 09:59:23;;;;;;;;;;;;;;;0.49;52.29;101941.13;4995917;28;19929;-76
2022/03/05 10:01:49;;;;;;;;;;;;;;;0.51;52.17;101948.03;4995838;28;19925;-77
2022/03/05 10:04:21;;;;;;;;;;;;;;;0.40;52.24;101951.19;4994413;28;20351;-77
2022/03/05 10:07:05;;;;;;;;;;;;;;;0.34;52.81;101948.34;4995389;28;19926;-77
2022/03/05 10:09:31;;;;;;;;;;;;;;;0.24;53.16;101949.44;5010537;28;20018;-78
2022/03/05 10:11:56;;;;;;;;;;;;;;;0.25;53.33;101944.88;4981472;28;20053;-77
2022/03/05 10:14:22;;;;;;;;;;;;;;;0.24;53.35;101941.34;4975727;28;20032;-78
2022/03/05 10:16:47;;;;;;;;;;;;;;;0.25;53.08;101942.19;4976020;28;19930;-77
2022/03/05 10:19:17;;;;;;;;;;;;;;;0.16;53.25;101946.81;4975633;28;19926;-77
2022/03/05 10:21:58;;;;;;;;;;;;;;;0.13;53.80;101941.78;4991008;28;19926;-77
2022/03/05 10:24:37;;;;;;;;;;;;;;;0.09;54.30;101934.22;4976280;28;19930;-78
2022/03/05 10:27:03;;;;;;;;;;;;;;;0.09;53.83;101918.03;4974751;28;19933;-76
2022/03/05 10:29:34;;;;;;;;;;;;;;;0.06;53.36;101919.22;4975608;28;20411;-78
2022/03/05 10:32:04;;;;;;;;;;;;;;;-0.07;53.87;101925.22;4974177;28;19930;-78
2022/03/05 10:34:42;;;;;;;;;;;;;;;-0.16;53.82;101907.44;4958369;28;19944;-78
2022/03/05 10:37:08;;;;;;;;;;;;;;;-0.21;54.37;101914.38;4975418;28;19933;-79
2022/03/05 10:39:33;;;;;;;;;;;;;;;-0.21;54.43;101909.81;4975649;28;19925;-77
2022/03/05 10:41:59;;;;;;;;;;;;;;;-0.19;55.21;101912.31;4990173;28;19925;-78
2022/03/05 10:44:24;;;;;;;;;;;;;;;-0.16;55.27;101912.00;4974464;28;20274;-79
2022/03/05 10:46:54;;;;;;;;;;;;;;;-0.15;55.07;101913.66;4975552;28;19934;-77
2022/03/05 10:49:20;;;;;;;;;;;;;;;-0.11;55.24;101898.78;4990179;28;20400;-77
2022/03/05 10:51:46;;;;;;;;;;;;;;;-0.04;55.22;101900.56;4991839;28;19926;-76
2022/03/05 10:54:12;;;;;;;;;;;;;;;-0.05;54.67;101895.38;4991156;28;20296;-76
2022/03/05 10:56:37;;;;;;;;;;;;;;;0.00;54.64;101890.28;4991218;28;19929;-77
2022/03/05 10:59:10;;;;;;;;;;;;;;;0.10;54.96;101890.84;4990972;28;19956;-76
2022/03/05 11:01:37;;;;;;;;;;;;;;;0.19;54.49;101887.09;4991365;28;20052;-79
2022/03/05 11:04:02;;;;;;;;;;;;;;;0.25;54.53;101877.41;4993485;28;19932;-77
2022/03/05 11:06:28;;;;;;;;;;;;;;;0.27;54.36;101876.19;4993554;28;19922;-77
2022/03/05 11:08:54;;;;;;;;;;;;;;;0.21;54.70;101882.34;4993951;28;19925;-76
2022/03/05 11:11:20;;;;;;;;;;;;;;;0.22;55.15;101884.00;4994212;28;19928;-77
2022/03/05 11:13:45;;;;;;;;;;;;;;;0.21;54.68;101879.63;5009407;28;19969;-76
2022/03/05 11:16:11;;;;;;;;;;;;;;;0.19;54.51;101881.69;4993270;28;19926;-77
2022/03/05 11:18:37;;;;;;;;;;;;;;;0.09;54.85;101870.28;4994144;28;19928;-77
2022/03/05 11:21:03;;;;;;;;;;;;;;;0.03;54.75;101875.59;4993736;28;19925;-77
2022/03/05 11:23:28;;;;;;;;;;;;;;;-0.02;54.48;101855.34;4994768;28;19980;-77
2022/03/05 11:25:54;;;;;;;;;;;;;;;-0.01;54.82;101862.44;5010858;28;19937;-77
2022/03/05 11:28:20;;;;;;;;;;;;;;;-0.10;54.61;101860.00;4988597;28;19957;-79
2022/03/05 11:30:45;;;;;;;;;;;;;;;-0.12;55.04;101851.25;4989141;28;19929;-78
2022/03/05 11:33:11;;;;;;;;;;;;;;;-0.08;55.32;101848.00;4989475;28;19925;-77
2022/03/05 11:35:43;;;;;;;;;;;;;;;-0.07;55.21;101849.69;4999928;28;19938;-78
2022/03/05 11:38:33;;;;;;;;;;;;;;;-0.09;54.97;101848.19;4972258;28;19922;-78
2022/03/05 11:40:59;;;;;;;;;;;;;;;-0.03;55.44;101847.44;4986952;28;19926;-78
2022/03/05 11:43:25;;;;;;;;;;;;;;;-0.03;55.46;101845.59;4994007;28;20309;-77
2022/03/05 11:45:58;;;;;;;;;;;;;;;0.02;55.05;101841.53;4992441;28;19937;-77
2022/03/05 11:48:23;;;;;;;;;;;;;;;0.05;54.61;101844.69;4992982;28;19925;-77
2022/03/05 11:50:49;;;;;;;;;;;;;;;0.06;54.56;101850.94;4992907;28;20385;-78
2022/03/05 11:53:15;;;;;;;;;;;;;;;0.03;54.24;101844.03;4992582;28;19980;-77
2022/03/05 11:55:42;;;;;;;;;;;;;;;0.03;54.29;101843.22;4991451;28;19937;-78
2022/03/05 11:58:09;;;;;;;;;;;;;;;0.05;54.08;101847.41;4992545;28;19926;-78
2022/03/05 12:00:35;;;;;;;;;;;;;;;0.04;54.48;101848.41;4992375;28;19934;-77
2022/03/05 12:03:01;;;;;;;;;;;;;;;0.07;54.32;101847.22;4999169;28;19933;-77
2022/03/05 12:05:53;;;;;;;;;;;;;;;0.06;53.54;101842.84;4992249;28;19921;-78
2022/03/05 12:08:25;;;;;;;;;;;;;;;0.02;53.61;101830.75;4989963;28;20306;-78
2022/03/05 12:11:09;;;;;;;;;;;;;;;0.05;53.19;101830.38;4993021;28;20393;-78
2022/03/05 12:13:39;;;;;;;;;;;;;;;-0.03;53.69;101828.56;4989777;28;19925;-77
2022/03/05 12:16:12;;;;;;;;;;;;;;;-0.04;53.96;101826.88;4997065;28;20032;-77
2022/03/05 12:18:37;;;;;;;;;;;;;;;-0.02;53.56;101824.84;4992321;28;20514;-78
2022/03/05 12:21:03;;;;;;;;;;;;;;;-0.07;54.22;101829.97;4991639;28;20012;-80
2022/03/05 12:23:29;;;;;;;;;;;;;;;-0.14;54.37;101818.22;4997572;28;19972;-77
2022/03/05 12:25:54;;;;;;;;;;;;;;;-0.15;54.64;101809.31;5008292;28;20055;-80
2022/03/05 12:28:23;;;;;;;;;;;;;;;-0.16;54.22;101807.63;4995235;28;20032;-75
2022/03/05 12:30:51;;;;;;;;;;;;;;;-0.14;53.93;101808.28;4982304;28;19925;-76
2022/03/05 12:33:17;;;;;;;;;;;;;;;-0.13;53.87;101801.03;4992731;28;19980;-76
2022/03/05 12:35:46;;;;;;;;;;;;;;;-0.16;53.84;101799.53;4985861;28;19929;-81
2022/03/05 12:38:18;;;;;;;;;;;;;;;-0.17;53.61;101805.09;5001502;28;20017;-79